大阪空港の過去48時間の天気

大阪空港 (Osaka/Intl)

現在時刻: 12/15 21:54 JST (12/15 12:54 UTC) 以下の時間は現地時間です。

過去48時間のMETAR気象情報
時間 風向 風速(m/s) 視程 気温(℃) 湿度(%) 気圧(hPa) 天気現象
15 20:00 北西 2 10km以上 4 70 1029
15 19:00 北西 2 10km以上 6 57 1029
15 18:00 3 10km以上 6 57 1029
15 17:00 4 10km以上 8 49 1029
15 16:00 北北東 3 10km以上 8 49 1028
15 15:00 北西 5 10km以上 9 43 1028
15 14:00 北北東 4 10km以上 9 46 1028
15 13:00 5 10km以上 9 43 1029
15 12:00 北北西 3 10km以上 8 49 1029
15 11:00 北北西 3 10km以上 8 53 1030
15 10:00 北北西 2 10km以上 7 61 1031
15 09:00 不定 1 10km以上 6 65 1030
15 08:00 不定 1 10km以上 5 75 1030
15 07:00 不定 1 10km以上 4 81 1029
15 06:00 西 2 10km以上 4 81 1029
15 05:00 不定 1 10km以上 4 87 1028
14 20:00 北北西 2 10km以上 4 75 1027
14 19:00 北北西 4 10km以上 4 75 1027
14 18:00 北西 3 10km以上 5 70 1027
14 17:00 西北西 2 10km以上 6 61 1026
14 16:00 北西 3 10km以上 7 57 1026
14 15:00 北北西 6 10km以上 8 53 1025
14 14:00 北北西 8 10km以上 9 46 1025
14 13:00 北北西 7 10km以上 8 53 1025
14 12:00 北北西 6 10km以上 7 61 1025
14 11:47 北西 8 10km以上 8 57 1026 周辺でしゅう雨
14 11:00 北北西 3 10km以上 8 61 1026
14 10:00 3 10km以上 7 70 1027
14 09:00 2 10km以上 6 76 1026
14 08:00 不定 1 10km以上 5 75 1026
14 07:00 不定 1 10km以上 4 81 1025
14 06:00 不定 1 10km以上 4 81 1025
14 05:00 不定 1 10km以上 4 75 1025
RJOO 151100Z 31004KT 9999 FEW030 04/M01 Q1029 RMK 1CU030 A3041
RJOO 151000Z 31004KT 9999 FEW030 06/M02 Q1029 RMK 1CU030 A3040
RJOO 150900Z 01005KT 9999 FEW030 SCT050 06/M02 Q1029 RMK 1CU030 3SC050 A3039
RJOO 150800Z 36008KT 9999 FEW030 BKN050 08/M02 Q1029 RMK 1CU030 5SC050 A3039
RJOO 150700Z 02006KT 340V050 9999 FEW030 BKN050 08/M02 Q1028 RMK 1CU030 5SC050 A3038
RJOO 150600Z 32009KT 9999 FEW030 BKN050 09/M03 Q1028 RMK 1CU030 5SC050 A3038
RJOO 150500Z 02008KT 340V050 9999 FEW030 BKN050 09/M02 Q1028 RMK 1CU030 6SC050 A3038
RJOO 150400Z 35010KT 9999 FEW025 BKN060 09/M03 Q1029 RMK 1CU025 6SC060 A3039
RJOO 150300Z 33006KT 300V360 9999 FEW025 SCT050 08/M02 Q1029 RMK 1CU025 4SC050 A3041
RJOO 150200Z 34005KT 290V030 9999 FEW025 SCT040 BKN060 08/M01 Q1030 RMK 1CU025 3CU040 5SC060 A3044
RJOO 150100Z 33004KT 280V010 9999 FEW025 SCT045 BKN060 07/M00 Q1031 RMK 1CU025 3CU045 6SC060 A3044
RJOO 150000Z VRB02KT 9999 FEW025 BKN060 06/00 Q1030 RMK 1CU025 6SC060 A3044
RJOO 142300Z VRB02KT 9999 FEW025 BKN060 05/01 Q1030 RMK 1CU025 6SC060 A3042
RJOO 142200Z VRB01KT 9999 FEW025 BKN070 04/01 Q1029 RMK 1CU025 7AC070 A3041
RJOO 142100Z 28003KT 250V310 9999 FEW025 BKN070 04/01 Q1029 RMK 1CU025 6AC070 A3039
RJOO 142000Z VRB01KT 9999 FEW025 BKN080 04/02 Q1028 RMK 1CU025 6AC080 A3038
RJOO 141100Z 33004KT 290V010 9999 FEW035 04/00 Q1027 RMK 1CU035 A3034
RJOO 141000Z 33007KT 9999 FEW035 04/M00 Q1027 RMK 1CU035 A3034
RJOO 140900Z 31005KT 9999 FEW035 SCT080 05/M00 Q1027 RMK 1CU035 3AC080 A3033
RJOO 140800Z 30004KT 270V330 9999 FEW035 SCT070 06/M01 Q1026 RMK 1CU035 3AC070 A3031
RJOO 140700Z 31006KT 250V330 9999 FEW025 SCT040 07/M01 Q1026 RMK 1CU025 3CU040 A3030
RJOO 140600Z 33011KT 9999 FEW025 SCT040 08/M01 Q1025 RMK 1CU025 3CU040 A3029
RJOO 140500Z 33015KT 9999 FEW025 SCT035 09/M02 Q1025 RMK 1CU025 3CU035 A3028
RJOO 140400Z 34014KT 310V010 9999 FEW025 SCT035 08/M01 Q1025 RMK 1CU025 4CU035 A3028
RJOO 140300Z 34011KT 320V030 9999 FEW025 SCT035 07/00 Q1025 RMK 1CU025 4CU035 A3029
RJOO 140247Z 32015KT 9999 VCSH FEW025 BKN035 08/00 Q1026 RMK 1CU025 5CU035 A3030
RJOO 140200Z 33005KT 280V010 9999 FEW025 SCT030 08/01 Q1026 RMK 1CU025 4CU030 A3031
RJOO 140100Z 36005KT 320V070 9999 BKN025 07/02 Q1027 RMK 5CU025 A3033
RJOO 140000Z 35003KT 240V050 9999 FEW020 SCT030 06/02 Q1026 RMK 1CU020 3CU030 A3032
RJOO 132300Z VRB01KT 9999 FEW020 SCT070 05/01 Q1026 RMK 1CU020 3AC070 A3031
RJOO 132200Z VRB01KT 9999 FEW020 SCT070 04/01 Q1025 RMK 1CU020 3AC070 A3029
RJOO 132100Z VRB02KT 9999 FEW025 SCT070 04/01 Q1025 RMK 1CU025 3AC070 A3028
RJOO 132000Z VRB01KT 9999 FEW025 BKN060 04/00 Q1025 RMK 1CU025 5SC060 A3027